Time;durP1;ratioP1;P1;durP2;ratioP2;P2;SDS_P1;SDS_P2;PMS_P1;PMS_P2;Temp;Humidity;BMP_temperature;BMP_pressure;BME280_temperature;BME280_humidity;BME280_pressure;Samples;Min_cycle;Max_cycle;Signal;HPM_P1;HPM_P2
2021/12/27 00:00:29;;;;;;;14.02;9.35;;;6.70;62.80;;;;;;5001801;28;20115;-55
2021/12/27 00:02:59;;;;;;;14.50;8.73;;;6.70;62.80;;;;;;5000459;28;20041;-55
2021/12/27 00:05:26;;;;;;;15.88;9.50;;;6.70;62.90;;;;;;5001173;28;20045;-55
2021/12/27 00:07:54;;;;;;;17.67;9.98;;;6.80;63.00;;;;;;5001253;28;20025;-56
2021/12/27 00:10:21;;;;;;;15.00;9.75;;;6.80;63.00;;;;;;4999032;28;20060;-55
2021/12/27 00:12:48;;;;;;;13.15;8.82;;;6.80;63.00;;;;;;5001102;28;20041;-57
2021/12/27 00:15:15;;;;;;;12.95;8.20;;;6.80;63.10;;;;;;5001013;28;20033;-55
2021/12/27 00:17:42;;;;;;;15.40;8.68;;;6.80;63.00;;;;;;4996524;28;20034;-55
2021/12/27 00:20:11;;;;;;;13.20;8.77;;;6.80;63.10;;;;;;4999416;28;20043;-53
2021/12/27 00:22:38;;;;;;;14.30;8.75;;;6.80;63.10;;;;;;5001688;28;20555;-55
2021/12/27 00:25:05;;;;;;;14.27;8.20;;;6.90;63.10;;;;;;5001840;28;20036;-55
2021/12/27 00:27:31;;;;;;;16.48;9.20;;;6.80;63.10;;;;;;4997777;28;20038;-54
2021/12/27 00:29:58;;;;;;;17.13;9.30;;;6.90;63.10;;;;;;5002430;28;20057;-55
2021/12/27 00:32:24;;;;;;;13.18;8.80;;;6.90;63.10;;;;;;4999878;28;20025;-55
2021/12/27 00:34:50;;;;;;;15.27;8.70;;;6.90;63.10;;;;;;5001376;28;20030;-55
2021/12/27 00:37:17;;;;;;;15.70;8.68;;;6.90;63.10;;;;;;5000342;28;21105;-54
2021/12/27 00:39:43;;;;;;;14.40;8.93;;;6.90;63.00;;;;;;5002686;28;20033;-55
2021/12/27 00:42:10;;;;;;;12.52;8.10;;;6.90;63.00;;;;;;5000529;28;20026;-55
2021/12/27 00:44:36;;;;;;;13.00;8.05;;;6.90;63.00;;;;;;5002567;28;20030;-55
2021/12/27 00:47:03;;;;;;;12.80;8.05;;;6.90;63.00;;;;;;4998302;28;20034;-57
2021/12/27 00:49:29;;;;;;;15.93;8.55;;;6.90;63.00;;;;;;4996726;28;20029;-57
2021/12/27 00:51:55;;;;;;;13.85;8.15;;;6.90;63.10;;;;;;4998935;28;20029;-53
2021/12/27 00:54:22;;;;;;;13.80;8.18;;;6.90;63.00;;;;;;5001055;28;20048;-56
2021/12/27 00:56:48;;;;;;;13.52;8.13;;;6.90;63.00;;;;;;4982099;28;20038;-55
2021/12/27 00:59:14;;;;;;;13.70;7.72;;;7.00;63.20;;;;;;5000749;28;20034;-53
2021/12/27 01:01:40;;;;;;;13.27;7.90;;;6.90;63.20;;;;;;4980562;28;20037;-55
2021/12/27 01:04:07;;;;;;;12.60;8.35;;;7.00;63.20;;;;;;5002439;28;20456;-57
2021/12/27 01:06:33;;;;;;;14.32;8.05;;;7.00;63.30;;;;;;5000989;28;20026;-54
2021/12/27 01:09:00;;;;;;;13.65;8.20;;;7.00;63.30;;;;;;5000308;28;20025;-55
2021/12/27 01:11:41;;;;;;;14.70;8.68;;;7.00;63.30;;;;;;4998366;28;20034;-57
2021/12/27 01:14:12;;;;;;;13.75;8.23;;;7.00;63.30;;;;;;5000862;28;20030;-57
2021/12/27 01:16:41;;;;;;;12.48;7.80;;;7.00;63.30;;;;;;4995701;28;20459;-55
2021/12/27 01:19:07;;;;;;;13.70;8.30;;;7.00;63.40;;;;;;4996405;28;20037;-56
2021/12/27 01:21:35;;;;;;;13.43;8.60;;;7.00;63.40;;;;;;4999766;28;20478;-57
2021/12/27 01:24:02;;;;;;;11.90;7.43;;;7.00;63.50;;;;;;4998445;28;20368;-55
2021/12/27 01:26:28;;;;;;;12.20;7.63;;;7.00;63.60;;;;;;4997878;28;20486;-54
2021/12/27 01:29:00;;;;;;;14.43;8.60;;;7.00;63.60;;;;;;4997123;28;20037;-55
2021/12/27 01:31:26;;;;;;;14.50;8.50;;;7.00;63.70;;;;;;4999456;28;20049;-56
2021/12/27 01:33:52;;;;;;;14.02;8.18;;;7.00;63.60;;;;;;5003236;28;20029;-57
2021/12/27 01:36:19;;;;;;;11.35;7.07;;;7.00;63.70;;;;;;5003369;28;20498;-55
2021/12/27 01:38:47;;;;;;;14.48;8.35;;;7.10;63.80;;;;;;5004033;28;20037;-55
2021/12/27 01:41:17;;;;;;;12.77;7.78;;;7.10;63.80;;;;;;5003791;28;20509;-57
2021/12/27 01:43:44;;;;;;;13.52;8.38;;;7.10;63.80;;;;;;5005483;28;20038;-55
2021/12/27 01:46:18;;;;;;;16.30;8.77;;;7.10;63.80;;;;;;4985467;28;20049;-57
2021/12/27 01:48:54;;;;;;;14.18;8.77;;;7.10;63.80;;;;;;5002445;28;20393;-53
2021/12/27 01:51:23;;;;;;;13.55;8.00;;;7.10;63.80;;;;;;5004166;28;20038;-55
2021/12/27 01:53:49;;;;;;;15.05;8.50;;;7.10;63.70;;;;;;5004210;28;20045;-55
2021/12/27 01:56:17;;;;;;;15.90;8.82;;;7.10;63.70;;;;;;5002426;28;20057;-57
2021/12/27 01:58:44;;;;;;;14.25;8.40;;;7.20;63.70;;;;;;5001604;28;20947;-55
2021/12/27 02:01:12;;;;;;;16.88;9.48;;;7.20;63.70;;;;;;5003550;28;20602;-54
2021/12/27 02:03:40;;;;;;;14.63;9.07;;;7.20;63.80;;;;;;5005068;28;20559;-55
2021/12/27 02:06:09;;;;;;;16.80;9.75;;;7.20;63.80;;;;;;5003691;28;20034;-55
2021/12/27 02:08:38;;;;;;;17.30;9.55;;;7.20;63.80;;;;;;5002564;28;20041;-55
2021/12/27 02:11:05;;;;;;;16.10;9.13;;;7.20;63.80;;;;;;5002953;28;20505;-55
2021/12/27 02:13:33;;;;;;;16.83;9.63;;;7.20;63.70;;;;;;5004142;28;20028;-55
2021/12/27 02:15:59;;;;;;;15.10;8.95;;;7.20;63.80;;;;;;5001193;28;20053;-54
2021/12/27 02:18:25;;;;;;;14.65;9.50;;;7.20;63.80;;;;;;4981339;28;20045;-56
2021/12/27 02:20:51;;;;;;;16.00;9.25;;;7.20;63.80;;;;;;5004050;28;20041;-54
2021/12/27 02:23:19;;;;;;;14.10;8.52;;;7.20;63.80;;;;;;5004802;28;20034;-54
2021/12/27 02:25:50;;;;;;;14.77;8.32;;;7.30;64.00;;;;;;5002861;28;20519;-54
2021/12/27 02:28:18;;;;;;;14.57;8.93;;;7.30;64.00;;;;;;5000736;28;20034;-54
2021/12/27 02:30:46;;;;;;;13.77;8.50;;;7.30;64.00;;;;;;5001832;28;20399;-55
2021/12/27 02:33:13;;;;;;;15.20;9.15;;;7.30;64.00;;;;;;5002923;28;20038;-55
2021/12/27 02:35:47;;;;;;;15.68;8.60;;;7.30;64.00;;;;;;5002729;28;20030;-55
2021/12/27 02:38:26;;;;;;;14.50;8.50;;;7.30;64.00;;;;;;4994989;28;20760;-55
2021/12/27 02:40:52;;;;;;;17.23;8.95;;;7.30;63.90;;;;;;5003039;28;20033;-54
2021/12/27 02:43:22;;;;;;;13.23;8.32;;;7.30;63.90;;;;;;5003904;28;20051;-52
2021/12/27 02:46:10;;;;;;;16.38;9.13;;;7.30;63.90;;;;;;5001643;28;20018;-56
2021/12/27 02:48:44;;;;;;;14.88;8.18;;;7.30;64.00;;;;;;5000271;28;20030;-56
2021/12/27 02:51:11;;;;;;;14.35;8.48;;;7.30;63.80;;;;;;4998781;28;20757;-56
2021/12/27 02:53:37;;;;;;;15.43;9.32;;;7.30;63.80;;;;;;4999358;28;20026;-55
2021/12/27 02:56:06;;;;;;;13.30;8.52;;;7.40;63.80;;;;;;5001746;28;20057;-55
2021/12/27 02:58:34;;;;;;;13.88;8.68;;;7.40;63.80;;;;;;5000848;28;20025;-55
2021/12/27 03:01:08;;;;;;;16.23;8.52;;;7.40;63.80;;;;;;5002241;28;20509;-55
2021/12/27 03:03:34;;;;;;;15.02;9.07;;;7.40;63.90;;;;;;5003560;28;20029;-56
2021/12/27 03:06:01;;;;;;;13.60;8.88;;;7.40;63.80;;;;;;5002249;28;20390;-54
2021/12/27 03:08:28;;;;;;;14.68;9.18;;;7.40;63.80;;;;;;5001514;28;20030;-53
2021/12/27 03:10:56;;;;;;;16.98;9.13;;;7.40;63.90;;;;;;5002425;28;20034;-55
2021/12/27 03:13:31;;;;;;;14.20;8.57;;;7.40;63.90;;;;;;5001896;28;20037;-54
2021/12/27 03:16:02;;;;;;;15.52;8.90;;;7.40;64.00;;;;;;5001478;28;20022;-55
2021/12/27 03:18:28;;;;;;;12.77;7.93;;;7.40;64.00;;;;;;4997120;28;20057;-55
2021/12/27 03:20:56;;;;;;;13.98;8.73;;;7.40;64.00;;;;;;5003254;28;20022;-56
2021/12/27 03:23:22;;;;;;;13.82;8.05;;;7.40;64.10;;;;;;5001991;28;20463;-55
2021/12/27 03:25:49;;;;;;;15.02;7.97;;;7.40;64.70;;;;;;5002759;28;20026;-55
2021/12/27 03:28:16;;;;;;;13.63;8.15;;;7.40;64.10;;;;;;4983661;28;20038;-55
2021/12/27 03:30:42;;;;;;;12.75;7.88;;;7.40;64.10;;;;;;5002104;28;20037;-53
2021/12/27 03:33:10;;;;;;;13.60;7.47;;;7.40;64.10;;;;;;5002507;28;20505;-52
2021/12/27 03:35:40;;;;;;;13.80;9.07;;;7.40;64.10;;;;;;4999445;28;20018;-52
2021/12/27 03:38:10;;;;;;;13.00;8.07;;;7.40;64.10;;;;;;4999868;28;20041;-55
2021/12/27 03:40:38;;;;;;;13.20;8.00;;;7.40;64.10;;;;;;5003567;28;20026;-56
2021/12/27 03:43:04;;;;;;;13.73;8.02;;;7.40;64.10;;;;;;5003471;28;20033;-54
2021/12/27 03:45:39;;;;;;;14.02;8.63;;;7.50;64.20;;;;;;5001984;28;20101;-57
2021/12/27 03:48:08;;;;;;;14.10;7.80;;;7.40;64.20;;;;;;5001156;28;20031;-55
2021/12/27 03:50:35;;;;;;;13.73;8.40;;;7.40;64.90;;;;;;5000928;28;20026;-58
2021/12/27 03:53:01;;;;;;;16.73;8.52;;;7.50;64.30;;;;;;5002808;28;20029;-56
2021/12/27 03:55:28;;;;;;;14.18;8.10;;;7.50;64.30;;;;;;5000896;28;20046;-55
2021/12/27 03:58:04;;;;;;;16.30;9.23;;;7.50;64.30;;;;;;4999574;28;20353;-53
2021/12/27 04:00:45;;;;;;;13.20;8.70;;;7.50;64.40;;;;;;5001324;28;20065;-55
2021/12/27 04:03:11;;;;;;;14.43;8.32;;;7.50;64.30;;;;;;5000749;28;20042;-57
2021/12/27 04:05:38;;;;;;;15.05;8.25;;;7.50;64.40;;;;;;5001764;28;20037;-57
2021/12/27 04:08:09;;;;;;;12.95;7.80;;;7.50;64.40;;;;;;5000389;28;20025;-51
2021/12/27 04:10:40;;;;;;;14.98;8.50;;;7.50;64.40;;;;;;5000790;28;20037;-57
2021/12/27 04:13:11;;;;;;;17.08;10.07;;;7.50;64.40;;;;;;5001772;28;20756;-55
2021/12/27 04:15:38;;;;;;;15.15;8.15;;;7.50;64.50;;;;;;5000173;28;20038;-56
2021/12/27 04:18:05;;;;;;;13.35;8.43;;;7.60;64.50;;;;;;4999125;28;20509;-55
2021/12/27 04:20:32;;;;;;;14.18;8.63;;;7.50;64.40;;;;;;5000903;28;20034;-56
2021/12/27 04:22:58;;;;;;;15.40;8.80;;;7.60;64.40;;;;;;5001325;28;20022;-54
2021/12/27 04:25:24;;;;;;;16.70;9.45;;;7.50;64.40;;;;;;5002604;28;20479;-57
2021/12/27 04:27:50;;;;;;;15.77;9.32;;;7.60;64.40;;;;;;5000573;28;20505;-55
2021/12/27 04:30:18;;;;;;;15.98;8.90;;;7.50;64.30;;;;;;4981725;28;20303;-53
2021/12/27 04:32:45;;;;;;;15.48;8.77;;;7.60;64.30;;;;;;4999528;28;20029;-55
2021/12/27 04:35:11;;;;;;;14.73;8.77;;;7.60;64.30;;;;;;4981229;28;20367;-51
2021/12/27 04:37:38;;;;;;;16.02;9.55;;;7.60;64.30;;;;;;4999814;28;20474;-55
2021/12/27 04:40:07;;;;;;;17.02;9.20;;;7.50;64.20;;;;;;5000074;28;20026;-57
2021/12/27 04:42:34;;;;;;;17.58;9.40;;;7.60;64.30;;;;;;5002102;28;20049;-57
2021/12/27 04:45:02;;;;;;;15.50;8.98;;;7.60;64.30;;;;;;5001116;28;20038;-54
2021/12/27 04:47:29;;;;;;;16.13;8.25;;;7.60;64.30;;;;;;4998344;28;20462;-56
2021/12/27 04:49:56;;;;;;;16.23;9.98;;;7.60;64.30;;;;;;5000622;28;20509;-55
2021/12/27 04:52:22;;;;;;;17.52;9.38;;;7.60;64.40;;;;;;5001318;28;20041;-54
2021/12/27 04:54:48;;;;;;;15.88;9.07;;;7.60;64.40;;;;;;4998331;28;20498;-55
2021/12/27 04:57:14;;;;;;;17.58;9.30;;;7.60;64.40;;;;;;4995445;28;20049;-55
2021/12/27 04:59:40;;;;;;;16.70;9.50;;;7.60;64.30;;;;;;5000190;28;20041;-56
2021/12/27 05:02:07;;;;;;;16.80;9.68;;;7.60;64.30;;;;;;4996678;28;20037;-54
2021/12/27 05:04:33;;;;;;;17.42;9.48;;;7.60;64.30;;;;;;5002082;28;20363;-54
2021/12/27 05:06:59;;;;;;;17.35;9.98;;;7.60;64.30;;;;;;4999329;28;20030;-57
2021/12/27 05:09:25;;;;;;;17.27;9.00;;;7.60;64.30;;;;;;4999452;28;20061;-55
2021/12/27 05:11:51;;;;;;;18.25;9.88;;;7.60;64.30;;;;;;5001472;28;20022;-55
2021/12/27 05:14:18;;;;;;;17.73;10.10;;;7.60;64.30;;;;;;4999668;28;20368;-57
2021/12/27 05:16:44;;;;;;;17.27;9.63;;;7.60;64.30;;;;;;4990580;28;20037;-55
2021/12/27 05:19:10;;;;;;;19.55;10.15;;;7.60;64.30;;;;;;4995579;28;20026;-55
2021/12/27 05:21:36;;;;;;;19.13;10.77;;;7.60;64.30;;;;;;4999936;28;20026;-57
2021/12/27 05:24:03;;;;;;;16.92;9.90;;;7.60;64.30;;;;;;4998543;28;20506;-54
2021/12/27 05:26:29;;;;;;;20.38;10.55;;;7.60;64.40;;;;;;5001150;28;20025;-53
2021/12/27 05:28:55;;;;;;;17.63;10.18;;;7.60;64.40;;;;;;4997514;28;20486;-55
2021/12/27 05:31:21;;;;;;;64.28;27.83;;;7.60;64.40;;;;;;4998179;28;20034;-55
2021/12/27 05:33:48;;;;;;;87.32;36.00;;;7.60;64.50;;;;;;4998762;28;20545;-54
2021/12/27 05:36:14;;;;;;;28.13;14.30;;;7.50;65.10;;;;;;4998541;28;20029;-57
2021/12/27 05:38:40;;;;;;;19.52;10.82;;;7.50;64.50;;;;;;4998339;28;20048;-55
2021/12/27 05:41:07;;;;;;;17.42;9.85;;;7.60;64.60;;;;;;4997117;28;20318;-55
2021/12/27 05:43:33;;;;;;;16.90;9.27;;;7.60;64.60;;;;;;5001542;28;20470;-57
2021/12/27 05:46:00;;;;;;;17.15;9.70;;;7.60;64.70;;;;;;5000893;28;20037;-54
2021/12/27 05:48:26;;;;;;;17.40;9.63;;;7.60;64.70;;;;;;4995582;28;20034;-57
2021/12/27 05:50:52;;;;;;;18.17;9.45;;;7.60;64.70;;;;;;5000636;28;20033;-52
2021/12/27 05:53:20;;;;;;;16.20;8.85;;;7.60;65.40;;;;;;4998207;28;20022;-57
2021/12/27 05:55:46;;;;;;;16.48;9.50;;;7.60;64.70;;;;;;4996958;28;20578;-55
2021/12/27 05:58:12;;;;;;;17.98;8.77;;;7.60;64.70;;;;;;4997523;28;20033;-55
2021/12/27 06:00:39;;;;;;;16.52;9.13;;;7.60;64.70;;;;;;4992980;28;20049;-57
2021/12/27 06:03:06;;;;;;;17.27;9.43;;;7.60;64.70;;;;;;4999407;28;20026;-56
2021/12/27 06:05:33;;;;;;;16.65;8.88;;;7.60;64.70;;;;;;5000450;28;20034;-56
2021/12/27 06:08:00;;;;;;;17.20;9.25;;;7.60;64.70;;;;;;4998806;28;20585;-55
2021/12/27 06:10:27;;;;;;;19.98;9.70;;;7.60;64.70;;;;;;4999145;28;20049;-55
2021/12/27 06:12:54;;;;;;;16.23;9.18;;;7.60;64.70;;;;;;4999218;28;20033;-53
2021/12/27 06:15:20;;;;;;;18.27;10.00;;;7.60;64.80;;;;;;4994827;28;20038;-57
2021/12/27 06:17:46;;;;;;;17.00;8.35;;;7.60;64.80;;;;;;4993735;28;20022;-57
2021/12/27 06:20:16;;;;;;;17.80;9.00;;;7.70;64.90;;;;;;5002124;28;20033;-56
2021/12/27 06:22:49;;;;;;;63.25;27.55;;;7.60;64.90;;;;;;5003840;28;20030;-54
2021/12/27 06:25:16;;;;;;;42.67;21.08;;;7.60;64.90;;;;;;5002177;28;20478;-54
2021/12/27 06:27:42;;;;;;;23.38;12.05;;;7.60;65.00;;;;;;4984028;28;20902;-53
2021/12/27 06:30:10;;;;;;;18.30;9.77;;;7.70;65.10;;;;;;5001217;28;20029;-54
2021/12/27 06:32:37;;;;;;;20.83;9.77;;;7.70;65.20;;;;;;4999648;28;20376;-55
2021/12/27 06:35:05;;;;;;;20.75;9.95;;;7.70;65.20;;;;;;5001791;28;20021;-56
2021/12/27 06:37:31;;;;;;;21.38;10.18;;;7.60;65.20;;;;;;5002150;28;20037;-55
2021/12/27 06:39:58;;;;;;;18.85;9.90;;;7.70;65.30;;;;;;5001609;28;20033;-55
2021/12/27 06:42:24;;;;;;;18.15;8.85;;;7.70;65.30;;;;;;5000983;28;20026;-57
2021/12/27 06:44:51;;;;;;;18.48;9.88;;;7.70;65.30;;;;;;4984465;28;20037;-57
2021/12/27 06:47:17;;;;;;;14.82;8.93;;;7.70;65.40;;;;;;5000387;28;20932;-54
2021/12/27 06:49:43;;;;;;;17.02;9.18;;;7.70;65.40;;;;;;5001996;28;20890;-54
2021/12/27 06:52:11;;;;;;;31.67;13.82;;;7.70;65.40;;;;;;4998804;28;20394;-57
2021/12/27 06:54:40;;;;;;;22.35;11.48;;;7.70;65.40;;;;;;5002826;28;20026;-54
2021/12/27 06:57:07;;;;;;;18.48;10.60;;;7.70;65.40;;;;;;4999194;28;20482;-55
2021/12/27 06:59:33;;;;;;;16.60;8.93;;;7.70;65.40;;;;;;4999445;28;20463;-56
2021/12/27 07:02:00;;;;;;;27.60;10.25;;;7.80;65.50;;;;;;4997623;28;20463;-55
2021/12/27 07:04:26;;;;;;;19.80;10.70;;;7.70;65.40;;;;;;5003301;28;20470;-55
2021/12/27 07:06:53;;;;;;;18.17;9.18;;;7.80;65.50;;;;;;5001617;28;20026;-52
2021/12/27 07:09:20;;;;;;;17.15;9.68;;;7.80;65.50;;;;;;4998522;28;20505;-55
2021/12/27 07:11:46;;;;;;;17.17;9.50;;;7.80;65.50;;;;;;4998730;28;20037;-57
2021/12/27 07:14:12;;;;;;;16.83;9.27;;;7.80;65.50;;;;;;5002670;28;20033;-55
2021/12/27 07:16:38;;;;;;;16.67;9.15;;;7.80;65.50;;;;;;4998320;28;20022;-54
2021/12/27 07:19:04;;;;;;;17.42;9.32;;;7.80;65.50;;;;;;5001140;28;20030;-55
2021/12/27 07:21:31;;;;;;;18.50;9.73;;;7.80;65.50;;;;;;5002153;28;20041;-53
2021/12/27 07:23:57;;;;;;;23.77;10.52;;;7.80;65.50;;;;;;4980444;28;20041;-54
2021/12/27 07:26:23;;;;;;;19.63;10.18;;;7.80;65.70;;;;;;5001548;28;20032;-57
2021/12/27 07:28:49;;;;;;;20.10;10.88;;;7.80;65.50;;;;;;4999155;28;20470;-57
2021/12/27 07:31:15;;;;;;;19.55;9.82;;;7.80;65.50;;;;;;5001077;28;20038;-53
2021/12/27 07:33:42;;;;;;;21.58;10.40;;;7.80;65.50;;;;;;5000794;28;20390;-57
2021/12/27 07:36:10;;;;;;;18.65;10.75;;;7.80;65.50;;;;;;4999096;28;20474;-57
2021/12/27 07:38:40;;;;;;;19.85;10.68;;;7.80;65.50;;;;;;4997844;28;20045;-56
2021/12/27 07:41:07;;;;;;;21.70;11.50;;;7.80;65.40;;;;;;4999185;28;20026;-56
2021/12/27 07:43:33;;;;;;;21.30;10.48;;;7.80;65.40;;;;;;5000802;28;20030;-55
2021/12/27 07:45:59;;;;;;;21.25;11.00;;;7.80;65.50;;;;;;5002048;28;20483;-53
2021/12/27 07:48:25;;;;;;;19.05;10.40;;;7.80;65.40;;;;;;4998277;28;20030;-55
2021/12/27 07:50:51;;;;;;;18.17;9.60;;;7.80;65.30;;;;;;4980279;28;20049;-53
2021/12/27 07:53:18;;;;;;;17.88;10.75;;;7.80;65.40;;;;;;5000283;28;20482;-54
2021/12/27 07:55:44;;;;;;;20.27;11.38;;;7.80;65.40;;;;;;4995604;28;20525;-52
2021/12/27 07:58:10;;;;;;;19.70;10.65;;;7.80;65.40;;;;;;4998938;28;20122;-50
2021/12/27 08:00:37;;;;;;;19.25;10.57;;;7.80;65.40;;;;;;4995704;28;20022;-55
2021/12/27 08:03:03;;;;;;;18.58;10.38;;;7.80;65.50;;;;;;4999373;28;20026;-53
2021/12/27 08:05:30;;;;;;;22.25;11.35;;;7.80;65.50;;;;;;4983228;28;20400;-55
2021/12/27 08:07:56;;;;;;;20.15;10.52;;;7.80;65.50;;;;;;5001654;28;20026;-54
2021/12/27 08:10:22;;;;;;;20.83;10.82;;;7.80;65.50;;;;;;5002001;28;20054;-53
2021/12/27 08:12:49;;;;;;;17.80;9.95;;;7.80;65.60;;;;;;4999850;28;20485;-55
2021/12/27 08:15:15;;;;;;;18.60;9.38;;;7.80;65.60;;;;;;4997796;28;20985;-53
2021/12/27 08:17:42;;;;;;;19.40;10.40;;;7.80;65.60;;;;;;4992896;28;20037;-56
2021/12/27 08:20:09;;;;;;;17.33;9.80;;;7.80;65.70;;;;;;5000269;28;20034;-55
2021/12/27 08:22:35;;;;;;;19.17;10.68;;;7.90;65.80;;;;;;4996974;28;20045;-56
2021/12/27 08:25:02;;;;;;;19.45;10.18;;;7.90;65.80;;;;;;4987727;28;20437;-55
2021/12/27 08:27:30;;;;;;;17.88;9.65;;;7.90;65.80;;;;;;4987512;28;20053;-54
2021/12/27 08:29:58;;;;;;;16.90;9.95;;;7.90;65.80;;;;;;4989656;28;20025;-55
2021/12/27 08:32:24;;;;;;;18.35;10.27;;;7.90;65.80;;;;;;4989173;28;20018;-54
2021/12/27 08:34:50;;;;;;;18.65;10.18;;;8.00;65.80;;;;;;4996897;28;20133;-53
2021/12/27 08:37:16;;;;;;;18.75;9.75;;;8.00;65.90;;;;;;4997848;28;20025;-53
2021/12/27 08:39:43;;;;;;;17.80;9.88;;;8.00;65.80;;;;;;4999498;28;20030;-54
2021/12/27 08:42:10;;;;;;;17.95;10.13;;;8.00;65.80;;;;;;4972233;28;20048;-56
2021/12/27 08:44:37;;;;;;;41.70;21.67;;;8.00;65.80;;;;;;4998991;28;20026;-57
2021/12/27 08:47:04;;;;;;;23.17;12.60;;;8.00;65.80;;;;;;4990688;28;20462;-54
2021/12/27 08:49:30;;;;;;;18.38;10.90;;;8.10;65.80;;;;;;5000769;28;20029;-52
2021/12/27 08:51:56;;;;;;;18.58;11.27;;;8.10;65.80;;;;;;4997396;28;20034;-52
2021/12/27 08:54:23;;;;;;;18.90;10.88;;;8.10;65.80;;;;;;4996709;28;20030;-55
2021/12/27 08:56:49;;;;;;;18.60;10.30;;;8.20;65.70;;;;;;4996969;28;20041;-58
2021/12/27 08:59:15;;;;;;;17.67;10.00;;;8.10;65.50;;;;;;4992454;28;20045;-55
2021/12/27 09:01:41;;;;;;;17.38;10.20;;;8.20;65.50;;;;;;4996659;28;20501;-57
2021/12/27 09:04:07;;;;;;;18.23;10.20;;;8.20;65.40;;;;;;4995791;28;20384;-56
2021/12/27 09:06:34;;;;;;;17.20;9.93;;;8.20;65.40;;;;;;5000092;28;20049;-55
2021/12/27 09:09:03;;;;;;;14.32;9.38;;;8.20;65.40;;;;;;4989258;28;20470;-56
2021/12/27 09:11:29;;;;;;;15.95;8.88;;;8.20;66.20;;;;;;4992204;28;20502;-57
2021/12/27 09:13:55;;;;;;;16.75;9.73;;;8.20;65.40;;;;;;4997967;28;20414;-55
2021/12/27 09:16:21;;;;;;;15.50;8.93;;;8.20;65.40;;;;;;4995201;28;20034;-57
2021/12/27 09:18:48;;;;;;;16.88;9.50;;;8.20;65.50;;;;;;4996348;28;20394;-57
2021/12/27 09:21:14;;;;;;;15.77;9.60;;;8.30;65.50;;;;;;5000202;28;20025;-55
2021/12/27 09:23:41;;;;;;;14.48;8.80;;;8.30;65.50;;;;;;4999822;28;20041;-55
2021/12/27 09:26:07;;;;;;;15.10;9.45;;;8.30;65.40;;;;;;5000894;28;20052;-57
2021/12/27 09:28:33;;;;;;;15.32;9.30;;;8.30;65.40;;;;;;4997845;28;20493;-57
2021/12/27 09:31:00;;;;;;;14.43;8.05;;;8.30;65.30;;;;;;4999748;28;20026;-55
2021/12/27 09:33:26;;;;;;;14.82;8.68;;;8.30;65.30;;;;;;4999373;28;20030;-56
2021/12/27 09:35:52;;;;;;;14.40;8.43;;;8.30;65.40;;;;;;4998342;28;20026;-55
2021/12/27 09:38:19;;;;;;;14.88;8.50;;;8.30;65.50;;;;;;4999671;28;20029;-56
2021/12/27 09:40:46;;;;;;;14.15;8.25;;;8.40;66.40;;;;;;4998361;28;20034;-55
2021/12/27 09:43:12;;;;;;;17.35;8.10;;;8.40;65.80;;;;;;4993154;28;20340;-54
2021/12/27 09:45:38;;;;;;;14.85;9.10;;;8.50;66.10;;;;;;4984329;28;20049;-55
2021/12/27 09:48:04;;;;;;;12.82;7.88;;;8.50;66.20;;;;;;4982753;28;20030;-57
2021/12/27 09:50:39;;;;;;;13.02;7.85;;;8.60;66.40;;;;;;4986845;28;21574;-56
2021/12/27 09:53:05;;;;;;;13.00;7.70;;;8.60;66.50;;;;;;4988131;28;20368;-57
2021/12/27 09:55:32;;;;;;;12.90;7.80;;;8.60;66.50;;;;;;4988836;28;20062;-57
2021/12/27 09:57:59;;;;;;;13.63;7.97;;;8.70;66.50;;;;;;5001611;28;20045;-55
2021/12/27 10:00:27;;;;;;;13.80;7.80;;;8.80;66.60;;;;;;5002681;28;20046;-54
2021/12/27 10:02:56;;;;;;;12.20;7.60;;;8.80;66.60;;;;;;5001397;28;20018;-57
2021/12/27 10:05:25;;;;;;;11.18;6.97;;;8.90;66.70;;;;;;5003506;28;20034;-56
2021/12/27 10:07:51;;;;;;;11.95;7.68;;;9.00;66.60;;;;;;5001877;28;20025;-57
2021/12/27 10:10:18;;;;;;;12.90;7.57;;;9.00;66.60;;;;;;4984251;28;20046;-57
2021/12/27 10:12:45;;;;;;;12.75;7.72;;;9.10;66.50;;;;;;5002843;28;20033;-56
2021/12/27 10:15:31;;;;;;;12.13;7.63;;;9.20;66.20;;;;;;4982542;28;20030;-55
2021/12/27 10:18:06;;;;;;;14.85;7.97;;;9.20;65.80;;;;;;4995738;28;20037;-55
2021/12/27 10:20:32;;;;;;;12.00;7.43;;;9.20;65.50;;;;;;5003386;28;20484;-54
2021/12/27 10:22:58;;;;;;;12.35;7.00;;;9.30;65.40;;;;;;5004087;28;20029;-52
2021/12/27 10:25:27;;;;;;;11.38;7.22;;;9.30;65.40;;;;;;5001534;28;20049;-53
2021/12/27 10:27:57;;;;;;;10.05;6.63;;;9.30;65.50;;;;;;5000417;28;20458;-54
2021/12/27 10:30:32;;;;;;;10.35;6.63;;;9.30;65.50;;;;;;5001812;28;20105;-54
2021/12/27 10:33:13;;;;;;;11.32;7.05;;;9.40;65.50;;;;;;5001831;28;20025;-55
2021/12/27 10:35:55;;;;;;;10.00;6.40;;;9.40;65.40;;;;;;5001142;28;20030;-53
2021/12/27 10:38:27;;;;;;;10.57;6.18;;;9.40;65.20;;;;;;5001399;28;20520;-55
2021/12/27 10:41:01;;;;;;;10.20;5.95;;;9.40;65.10;;;;;;5001068;28;20022;-55
2021/12/27 10:43:48;;;;;;;10.10;5.75;;;9.40;65.20;;;;;;5003369;28;20037;-54
2021/12/27 10:46:18;;;;;;;11.07;6.53;;;9.50;65.60;;;;;;4995644;28;20041;-55
2021/12/27 10:48:46;;;;;;;9.20;6.15;;;9.50;65.50;;;;;;4994012;28;20022;-56
2021/12/27 10:51:13;;;;;;;12.23;6.22;;;9.50;65.50;;;;;;4999114;28;20034;-55
2021/12/27 10:53:48;;;;;;;9.98;5.95;;;9.50;65.50;;;;;;4997959;28;20041;-52
2021/12/27 10:56:16;;;;;;;9.00;5.68;;;9.60;65.60;;;;;;5000254;28;20046;-56
2021/12/27 10:58:55;;;;;;;9.75;6.03;;;9.60;65.70;;;;;;5001229;28;20029;-54
2021/12/27 11:01:26;;;;;;;8.77;5.40;;;9.60;65.60;;;;;;4996873;28;20038;-55
2021/12/27 11:03:55;;;;;;;11.20;6.35;;;9.60;65.60;;;;;;5000465;28;20576;-56
2021/12/27 11:06:24;;;;;;;8.13;5.18;;;9.70;65.60;;;;;;4982868;28;20038;-57
2021/12/27 11:08:52;;;;;;;8.45;5.00;;;9.70;65.60;;;;;;5000043;28;20030;-54
2021/12/27 11:11:23;;;;;;;7.18;5.07;;;9.70;65.60;;;;;;4997585;28;20038;-55
2021/12/27 11:13:56;;;;;;;8.30;5.18;;;9.80;65.60;;;;;;4996235;28;20140;-53
2021/12/27 11:16:22;;;;;;;7.68;4.75;;;9.80;65.60;;;;;;4993475;28;20042;-54
2021/12/27 11:18:50;;;;;;;6.95;4.88;;;9.80;65.50;;;;;;4989263;28;20387;-57
2021/12/27 11:21:19;;;;;;;7.90;5.60;;;9.80;65.50;;;;;;4986271;28;20037;-55
2021/12/27 11:23:50;;;;;;;8.43;5.05;;;9.90;65.50;;;;;;4992356;28;20497;-55
2021/12/27 11:26:23;;;;;;;8.30;5.35;;;9.90;65.60;;;;;;4990543;28;20417;-56
2021/12/27 11:28:49;;;;;;;8.23;4.72;;;9.90;65.70;;;;;;4999253;28;20049;-55
2021/12/27 11:31:28;;;;;;;7.75;4.60;;;9.90;65.60;;;;;;4987596;28;20050;-56
2021/12/27 11:34:03;;;;;;;7.53;5.03;;;9.90;65.80;;;;;;4986660;28;20033;-55
2021/12/27 11:36:38;;;;;;;7.63;5.07;;;10.00;65.80;;;;;;4985297;28;20030;-57
2021/12/27 11:39:22;;;;;;;9.05;4.63;;;10.00;66.00;;;;;;4995990;28;20029;-53
2021/12/27 11:42:05;;;;;;;7.25;5.20;;;10.10;66.30;;;;;;5000491;28;20033;-53
2021/12/27 11:44:43;;;;;;;8.43;5.00;;;10.10;66.20;;;;;;4998016;28;20029;-54
2021/12/27 11:47:11;;;;;;;8.13;4.70;;;10.20;66.20;;;;;;4994320;28;20022;-55
2021/12/27 11:50:00;;;;;;;8.23;4.43;;;10.20;66.10;;;;;;5000088;28;20029;-53
2021/12/27 11:52:31;;;;;;;6.32;4.40;;;10.30;66.00;;;;;;4999542;28;20030;-55
2021/12/27 11:55:01;;;;;;;6.47;3.95;;;10.30;65.80;;;;;;5001366;28;20037;-53
2021/12/27 11:57:47;;;;;;;7.13;4.32;;;10.40;65.90;;;;;;4981102;28;20045;-54
2021/12/27 12:00:20;;;;;;;5.53;3.97;;;10.40;65.80;;;;;;4971640;28;20588;-55
2021/12/27 12:02:49;;;;;;;9.23;4.65;;;10.50;65.90;;;;;;4980921;28;20032;-55
2021/12/27 12:05:36;;;;;;;7.03;4.25;;;10.50;66.00;;;;;;4982696;28;20026;-55
2021/12/27 12:08:03;;;;;;;4.90;3.78;;;10.60;66.10;;;;;;4977900;28;20578;-55
2021/12/27 12:10:31;;;;;;;8.55;4.75;;;10.60;65.90;;;;;;4964694;28;20045;-55
2021/12/27 12:13:17;;;;;;;4.97;3.67;;;10.70;65.70;;;;;;4977299;28;20022;-55
2021/12/27 12:15:59;;;;;;;5.88;4.32;;;10.70;65.30;;;;;;4976040;28;20348;-55
2021/12/27 12:18:25;;;;;;;6.88;3.72;;;10.80;65.20;;;;;;4965886;28;20034;-55
2021/12/27 12:20:52;;;;;;;6.53;4.13;;;10.80;65.00;;;;;;4963351;28;20043;-57
2021/12/27 12:23:18;;;;;;;6.45;4.22;;;10.80;64.80;;;;;;4982420;28;20878;-54
2021/12/27 12:25:44;;;;;;;5.43;4.00;;;10.80;64.70;;;;;;4965030;28;20042;-55
2021/12/27 12:28:14;;;;;;;5.40;4.05;;;10.90;64.60;;;;;;4979284;28;20514;-55
2021/12/27 12:30:45;;;;;;;4.40;3.38;;;10.90;64.40;;;;;;4963208;28;20402;-57
2021/12/27 12:33:20;;;;;;;5.10;3.72;;;10.90;64.40;;;;;;4979682;28;20509;-56
2021/12/27 12:35:51;;;;;;;;;;;10.90;64.20;;;;;;4982588;28;20029;-56
2021/12/27 12:38:23;;;;;;;6.32;3.60;;;10.90;64.40;;;;;;4980446;28;19913;-55
2021/12/27 12:41:09;;;;;;;5.88;3.72;;;10.90;64.00;;;;;;4981858;28;20034;-55
2021/12/27 12:43:40;;;;;;;6.07;3.83;;;10.90;63.80;;;;;;4980253;28;20038;-57
2021/12/27 12:46:20;;;;;;;6.75;4.05;;;10.90;63.70;;;;;;4979636;28;20034;-57
2021/12/27 12:49:31;;;;;;;5.88;3.47;;;10.90;63.70;;;;;;4980157;28;20045;-55
2021/12/27 12:52:02;;;;;;;5.40;4.05;;;10.90;63.90;;;;;;4981283;28;20499;-55